Time;durP1;ratioP1;P1;durP2;ratioP2;P2;SDS_P1;SDS_P2;PMS_P1;PMS_P2;Temp;Humidity;BMP_temperature;BMP_pressure;BME280_temperature;BME280_humidity;BME280_pressure;Samples;Min_cycle;Max_cycle;Signal;HPM_P1;HPM_P2
2022/06/23 00:00:20;;;;;;;7.82;6.43;;;14.30;99.90;;;;;;5030699;28;20125;-75
2022/06/23 00:02:47;;;;;;;8.57;6.35;;;14.20;99.90;;;;;;5046016;28;20158;-75
2022/06/23 00:05:18;;;;;;;7.03;5.95;;;14.10;99.90;;;;;;5045433;28;20044;-74
2022/06/23 00:07:51;;;;;;;10.10;6.65;;;14.20;99.90;;;;;;5038939;28;20047;-75
2022/06/23 00:10:22;;;;;;;9.07;6.53;;;14.20;99.90;;;;;;5027970;28;20048;-75
2022/06/23 00:12:48;;;;;;;9.63;7.43;;;14.20;99.90;;;;;;5012576;28;20040;-75
2022/06/23 00:15:35;;;;;;;9.65;7.07;;;14.10;99.90;;;;;;5044687;28;20037;-75
2022/06/23 00:18:04;;;;;;;8.23;6.53;;;14.10;99.90;;;;;;5058529;28;21295;-75
2022/06/23 00:20:44;;;;;;;7.55;6.75;;;14.10;99.90;;;;;;5061322;28;20044;-75
2022/06/23 00:23:21;;;;;;;9.07;6.93;;;14.10;99.90;;;;;;5030344;28;20032;-75
2022/06/23 00:25:56;;;;;;;8.50;6.95;;;14.00;99.90;;;;;;5059912;28;20059;-75
2022/06/23 00:28:26;;;;;;;9.82;7.32;;;14.00;99.90;;;;;;5029225;28;20044;-75
2022/06/23 00:30:59;;;;;;;8.77;6.60;;;14.00;99.90;;;;;;5048944;28;20105;-75
2022/06/23 00:33:30;;;;;;;8.57;6.72;;;14.00;99.90;;;;;;5027841;28;20043;-75
2022/06/23 00:35:58;;;;;;;10.73;7.57;;;13.90;99.90;;;;;;5041121;28;20071;-75
2022/06/23 00:38:31;;;;;;;8.15;6.78;;;14.00;99.90;;;;;;5047999;28;20524;-75
2022/06/23 00:40:59;;;;;;;8.25;7.00;;;13.90;99.90;;;;;;5045470;28;20118;-74
2022/06/23 00:43:28;;;;;;;8.63;6.65;;;13.90;99.90;;;;;;5044367;28;20499;-75
2022/06/23 00:46:30;;;;;;;8.55;7.07;;;13.80;99.90;;;;;;5059849;28;20048;-74
2022/06/23 00:49:07;;;;;;;9.70;7.85;;;13.90;99.90;;;;;;4998328;28;20121;-74
2022/06/23 00:51:44;;;;;;;9.20;6.70;;;13.90;99.90;;;;;;5026782;28;20223;-75
2022/06/23 00:54:32;;;;;;;8.55;7.43;;;13.80;99.90;;;;;;5024034;28;20133;-74
2022/06/23 00:57:38;;;;;;;8.05;7.25;;;13.80;99.90;;;;;;5036278;28;20123;-74
2022/06/23 01:00:16;;;;;;;7.97;7.15;;;13.80;99.90;;;;;;5060692;28;20114;-74
2022/06/23 01:02:48;;;;;;;7.88;6.50;;;13.80;99.90;;;;;;5057660;28;20087;-74
2022/06/23 01:05:38;;;;;;;8.77;6.90;;;13.80;99.90;;;;;;5028414;28;20517;-74
2022/06/23 01:08:28;;;;;;;9.35;7.13;;;13.70;99.90;;;;;;5026477;28;20044;-75
2022/06/23 01:11:13;;;;;;;9.18;7.55;;;13.70;99.90;;;;;;5065254;28;20156;-74
2022/06/23 01:13:48;;;;;;;8.65;7.13;;;13.70;99.90;;;;;;5048621;28;20047;-74
2022/06/23 01:16:23;;;;;;;8.95;8.02;;;13.70;99.90;;;;;;5023758;28;20040;-74
2022/06/23 01:19:07;;;;;;;9.30;8.02;;;13.70;99.90;;;;;;5042483;28;20589;-74
2022/06/23 01:21:43;;;;;;;9.30;7.95;;;13.60;99.90;;;;;;5049252;28;20044;-75
2022/06/23 01:24:12;;;;;;;9.18;7.72;;;13.60;99.90;;;;;;5043709;28;20047;-75
2022/06/23 01:26:57;;;;;;;9.55;7.75;;;13.60;99.90;;;;;;5025297;28;20048;-75
2022/06/23 01:29:29;;;;;;;9.25;8.15;;;13.60;99.90;;;;;;5047215;28;20054;-75
2022/06/23 01:32:07;;;;;;;9.60;7.60;;;13.60;99.90;;;;;;5029422;28;20397;-75
2022/06/23 01:34:48;;;;;;;9.70;8.25;;;13.60;99.90;;;;;;5030454;28;20168;-75
2022/06/23 01:37:29;;;;;;;10.65;9.00;;;13.60;99.90;;;;;;5060535;28;20047;-75
2022/06/23 01:40:02;;;;;;;12.93;8.85;;;13.60;99.90;;;;;;5057141;28;20168;-75
2022/06/23 01:42:51;;;;;;;9.60;8.63;;;13.50;99.90;;;;;;5049315;28;20074;-75
2022/06/23 01:45:23;;;;;;;10.50;9.35;;;13.50;99.90;;;;;;5061260;28;20040;-75
2022/06/23 01:48:08;;;;;;;11.00;9.85;;;13.60;99.90;;;;;;5027986;28;20047;-75
2022/06/23 01:50:36;;;;;;;9.82;8.77;;;13.50;99.90;;;;;;5046507;28;20126;-75
2022/06/23 01:53:27;;;;;;;11.05;9.95;;;13.50;99.90;;;;;;5025994;28;20059;-75
2022/06/23 01:56:22;;;;;;;10.40;9.30;;;13.50;99.90;;;;;;5045679;28;20594;-75
2022/06/23 01:59:22;;;;;;;11.73;10.20;;;13.50;99.90;;;;;;5008006;28;20871;-75
2022/06/23 02:02:13;;;;;;;11.85;9.85;;;13.50;99.90;;;;;;5055526;28;20067;-75
2022/06/23 02:05:02;;;;;;;13.48;10.13;;;13.40;99.90;;;;;;5058544;28;20076;-75
2022/06/23 02:07:36;;;;;;;11.93;10.10;;;13.40;99.90;;;;;;5034639;28;20546;-75
2022/06/23 02:10:21;;;;;;;11.48;10.23;;;13.30;99.90;;;;;;5038861;28;20050;-75
2022/06/23 02:13:02;;;;;;;11.40;10.10;;;13.40;99.90;;;;;;5042546;28;20080;-75
2022/06/23 02:15:47;;;;;;;12.88;10.18;;;13.30;99.90;;;;;;5058825;28;20074;-75
2022/06/23 02:18:45;;;;;;;11.40;9.88;;;13.30;99.90;;;;;;5046632;28;20135;-75
2022/06/23 02:21:57;;;;;;;11.90;10.70;;;13.30;99.90;;;;;;5002616;28;20055;-75
2022/06/23 02:24:37;;;;;;;12.25;10.40;;;13.30;99.90;;;;;;4975364;28;20045;-75
2022/06/23 02:27:19;;;;;;;11.93;10.40;;;13.20;99.90;;;;;;5039466;28;20036;-75
2022/06/23 02:30:09;;;;;;;13.98;10.35;;;13.20;99.90;;;;;;5042432;28;20098;-75
2022/06/23 02:33:13;;;;;;;17.30;11.55;;;13.20;99.90;;;;;;5006580;28;20448;-75
2022/06/23 02:36:03;;;;;;;14.27;10.77;;;13.10;99.90;;;;;;5006116;28;21056;-75
2022/06/23 02:38:40;;;;;;;16.48;11.77;;;13.10;99.90;;;;;;5040879;28;20040;-75
2022/06/23 02:41:29;;;;;;;14.50;12.32;;;13.10;99.90;;;;;;5024704;28;20855;-75
2022/06/23 02:44:19;;;;;;;13.43;12.02;;;13.10;99.90;;;;;;5021947;28;20052;-75
2022/06/23 02:47:06;;;;;;;13.43;11.75;;;13.00;99.90;;;;;;5002788;28;20083;-75
2022/06/23 02:49:44;;;;;;;16.13;11.98;;;13.00;99.90;;;;;;5041239;28;20690;-75
2022/06/23 02:52:19;;;;;;;13.52;12.10;;;13.00;99.90;;;;;;5040166;28;20044;-75
2022/06/23 02:55:15;;;;;;;14.77;12.20;;;13.00;99.90;;;;;;5020664;28;20045;-75
2022/06/23 02:58:09;;;;;;;14.88;12.68;;;13.00;99.90;;;;;;5038027;28;20557;-75
2022/06/23 03:01:00;;;;;;;16.45;12.32;;;12.90;99.90;;;;;;5023322;28;20130;-75
2022/06/23 03:03:44;;;;;;;16.33;12.73;;;12.90;99.90;;;;;;5019351;28;20097;-75
2022/06/23 03:06:24;;;;;;;15.80;12.80;;;12.90;99.90;;;;;;5022980;28;20432;-75
2022/06/23 03:09:07;;;;;;;14.88;13.23;;;12.90;99.90;;;;;;5007618;28;20049;-77
2022/06/23 03:11:52;;;;;;;15.25;12.82;;;12.80;99.90;;;;;;5045254;28;20386;-75
2022/06/23 03:14:55;;;;;;;16.48;13.45;;;12.80;99.90;;;;;;5023805;28;20508;-75
2022/06/23 03:17:33;;;;;;;14.88;13.07;;;12.80;99.90;;;;;;5023460;28;20044;-75
2022/06/23 03:20:05;;;;;;;17.55;13.43;;;12.80;99.90;;;;;;5042698;28;20061;-75
2022/06/23 03:22:48;;;;;;;15.90;13.65;;;12.80;99.90;;;;;;5039905;28;20567;-75
2022/06/23 03:25:25;;;;;;;16.55;13.80;;;12.80;99.90;;;;;;5010102;28;20186;-75
2022/06/23 03:28:00;;;;;;;16.17;13.98;;;12.80;99.90;;;;;;5008356;28;20053;-76
2022/06/23 03:30:53;;;;;;;14.45;12.73;;;12.80;99.90;;;;;;5035235;28;20044;-75
2022/06/23 03:33:31;;;;;;;18.02;14.93;;;12.80;99.90;;;;;;5006675;28;20059;-75
2022/06/23 03:36:04;;;;;;;15.27;13.68;;;12.70;99.90;;;;;;5060096;28;20415;-75
2022/06/23 03:41:37;;;;;;;17.00;13.73;;;12.80;99.90;;;;;;5029698;28;20382;-75
2022/06/23 03:44:25;;;;;;;15.40;13.77;;;12.80;99.90;;;;;;5022118;28;20142;-75
2022/06/23 03:46:56;;;;;;;16.50;13.68;;;12.80;99.90;;;;;;5028315;28;20040;-75
2022/06/23 03:49:37;;;;;;;16.98;13.38;;;12.70;99.90;;;;;;5023114;28;20048;-75
2022/06/23 03:52:21;;;;;;;16.30;13.27;;;12.70;99.90;;;;;;5025365;28;20114;-75
2022/06/23 03:54:59;;;;;;;16.60;14.35;;;12.70;99.90;;;;;;5027078;28;20051;-74
2022/06/23 03:57:31;;;;;;;15.97;14.23;;;12.70;99.90;;;;;;5052663;28;20044;-75
2022/06/23 04:00:22;;;;;;;17.85;14.10;;;12.80;99.90;;;;;;5029765;28;20277;-75
2022/06/23 04:03:18;;;;;;;16.10;13.85;;;12.80;99.90;;;;;;5025397;28;20052;-75
2022/06/23 04:06:21;;;;;;;17.25;13.70;;;12.80;99.90;;;;;;5008733;28;20085;-75
2022/06/23 04:09:02;;;;;;;;;;;12.80;99.90;;;;;;5011579;28;20045;-75
2022/06/23 04:11:43;;;;;;;15.57;13.20;;;12.90;99.90;;;;;;5040042;28;19917;-75
2022/06/23 04:14:13;;;;;;;16.92;14.20;;;12.80;99.90;;;;;;5007708;28;20257;-75
2022/06/23 04:16:40;;;;;;;15.45;13.82;;;12.90;99.90;;;;;;5044073;28;20044;-75
2022/06/23 04:19:21;;;;;;;17.77;14.27;;;12.90;99.90;;;;;;5046814;28;20130;-75
2022/06/23 04:21:50;;;;;;;15.80;13.18;;;13.00;99.90;;;;;;5031372;28;20036;-74
2022/06/23 04:24:24;;;;;;;17.45;14.02;;;13.00;99.90;;;;;;5008500;28;20115;-75
2022/06/23 04:26:54;;;;;;;14.93;12.82;;;13.00;99.90;;;;;;5026517;28;20091;-75
2022/06/23 04:29:36;;;;;;;17.05;13.77;;;13.10;99.90;;;;;;5042692;28;20048;-75
2022/06/23 04:32:15;;;;;;;18.85;14.05;;;13.10;99.90;;;;;;5029373;28;20114;-76
2022/06/23 04:34:54;;;;;;;15.57;14.00;;;13.20;99.90;;;;;;5032051;28;20471;-75
2022/06/23 04:37:24;;;;;;;15.07;13.48;;;13.30;99.90;;;;;;5025417;28;20040;-75
2022/06/23 04:40:03;;;;;;;16.95;14.02;;;13.40;99.90;;;;;;5024368;28;20183;-75
2022/06/23 04:42:30;;;;;;;15.57;13.10;;;13.40;99.90;;;;;;5047466;28;20495;-75
2022/06/23 04:45:24;;;;;;;16.60;14.75;;;13.50;99.90;;;;;;5007677;28;20040;-75
2022/06/23 04:47:53;;;;;;;16.33;13.13;;;13.70;99.90;;;;;;5044976;28;20050;-75
2022/06/23 04:50:50;;;;;;;13.98;12.55;;;13.70;99.90;;;;;;5005056;28;20128;-75
2022/06/23 04:53:31;;;;;;;14.25;12.75;;;13.90;99.90;;;;;;5006679;28;20049;-75
2022/06/23 04:56:12;;;;;;;14.10;12.60;;;14.00;99.90;;;;;;5036146;28;20614;-75
2022/06/23 04:58:49;;;;;;;14.63;13.07;;;14.10;99.90;;;;;;5012307;28;20052;-75
2022/06/23 05:01:18;;;;;;;15.07;12.32;;;14.20;99.90;;;;;;5023736;28;20120;-75
2022/06/23 05:03:49;;;;;;;13.70;12.27;;;14.30;99.90;;;;;;5031453;28;20045;-75
2022/06/23 05:06:25;;;;;;;14.00;12.50;;;14.40;99.90;;;;;;5021749;28;20116;-75
2022/06/23 05:08:52;;;;;;;11.98;10.77;;;14.60;99.90;;;;;;5032506;28;20045;-76
2022/06/23 05:11:29;;;;;;;12.43;11.15;;;14.90;99.90;;;;;;5029585;28;20602;-76
2022/06/23 05:14:11;;;;;;;12.75;10.82;;;15.30;99.90;;;;;;5013019;28;20056;-75
2022/06/23 05:16:42;;;;;;;11.32;10.20;;;15.80;99.90;;;;;;5008405;28;20521;-75
2022/06/23 05:19:16;;;;;;;11.88;9.93;;;16.10;99.90;;;;;;5025966;28;20060;-75
2022/06/23 05:21:48;;;;;;;11.07;8.90;;;16.50;99.90;;;;;;5022412;28;20186;-76
2022/06/23 05:24:17;;;;;;;11.50;9.82;;;16.70;99.90;;;;;;5025781;28;20041;-75
2022/06/23 05:26:57;;;;;;;12.60;9.35;;;16.80;99.90;;;;;;5023702;28;20040;-76
2022/06/23 05:29:43;;;;;;;10.77;8.95;;;16.90;99.90;;;;;;5038909;28;20044;-77
2022/06/23 05:32:23;;;;;;;10.18;9.13;;;17.00;99.90;;;;;;5023691;28;20058;-77
2022/06/23 05:35:05;;;;;;;9.75;8.55;;;17.30;99.90;;;;;;5021588;28;20067;-77
2022/06/23 05:37:43;;;;;;;9.63;8.55;;;17.40;99.90;;;;;;5022492;28;20056;-77
2022/06/23 05:40:38;;;;;;;9.25;7.53;;;17.50;99.90;;;;;;5011109;28;20504;-77
2022/06/23 05:43:04;;;;;;;10.20;8.05;;;17.60;99.90;;;;;;5011307;28;20047;-77
2022/06/23 05:45:44;;;;;;;7.93;6.70;;;17.70;99.90;;;;;;5021276;28;20044;-77
2022/06/23 05:48:42;;;;;;;11.02;8.60;;;17.90;99.90;;;;;;5039125;28;20044;-76
2022/06/23 05:51:22;;;;;;;12.45;11.25;;;18.30;99.90;;;;;;5021237;28;20041;-76
2022/06/23 05:54:07;;;;;;;9.85;8.52;;;18.30;99.90;;;;;;5036479;28;20563;-77
2022/06/23 05:56:41;;;;;;;17.23;15.55;;;18.60;99.90;;;;;;5006995;28;20579;-76
2022/06/23 05:59:28;;;;;;;15.07;13.60;;;18.80;99.90;;;;;;5009642;28;20053;-77
2022/06/23 06:02:07;;;;;;;14.95;13.18;;;18.70;99.90;;;;;;5029280;28;20496;-76
2022/06/23 06:04:55;;;;;;;10.52;7.25;;;18.90;99.90;;;;;;5026849;28;20617;-75
2022/06/23 06:07:28;;;;;;;8.38;7.30;;;19.10;99.90;;;;;;5015700;28;20047;-76
2022/06/23 06:09:55;;;;;;;8.43;7.05;;;19.40;99.90;;;;;;5016394;28;20060;-76
2022/06/23 06:12:34;;;;;;;7.43;6.47;;;19.80;99.90;;;;;;5001676;28;20044;-76
2022/06/23 06:15:06;;;;;;;7.85;7.05;;;19.70;99.90;;;;;;5008744;28;20369;-76
2022/06/23 06:17:35;;;;;;;8.20;7.28;;;19.90;99.90;;;;;;5040168;28;20053;-76
2022/06/23 06:20:06;;;;;;;9.63;7.60;;;20.00;99.90;;;;;;5009018;28;20118;-77
2022/06/23 06:22:41;;;;;;;8.90;7.40;;;20.10;99.90;;;;;;5059298;28;20146;-76
2022/06/23 06:25:22;;;;;;;9.25;7.15;;;20.20;99.90;;;;;;5041166;28;20457;-76
2022/06/23 06:27:49;;;;;;;8.33;7.27;;;20.30;99.90;;;;;;5079666;28;20421;-77
2022/06/23 06:30:19;;;;;;;9.60;7.47;;;20.40;99.90;;;;;;5078416;28;20432;-76
2022/06/23 06:32:46;;;;;;;10.77;8.02;;;20.60;99.90;;;;;;5060980;28;20055;-75
2022/06/23 06:35:28;;;;;;;11.25;9.23;;;20.70;99.90;;;;;;5060812;28;21662;-76
2022/06/23 06:38:00;;;;;;;9.27;7.72;;;20.90;99.90;;;;;;5061158;28;20500;-75
2022/06/23 06:40:27;;;;;;;9.82;7.78;;;21.10;99.90;;;;;;5049286;28;20457;-77
2022/06/23 06:43:06;;;;;;;11.45;9.10;;;21.20;99.90;;;;;;5043287;28;20101;-78
2022/06/23 06:45:34;;;;;;;8.57;7.35;;;21.40;99.90;;;;;;5050458;28;20055;-78
2022/06/23 06:48:02;;;;;;;10.77;7.03;;;21.60;99.90;;;;;;5080991;28;20451;-78
2022/06/23 06:50:31;;;;;;;11.38;7.38;;;21.70;99.90;;;;;;5045474;28;20063;-77
2022/06/23 06:53:01;;;;;;;8.02;6.60;;;21.70;99.90;;;;;;5097499;27;20056;-77
2022/06/23 06:55:41;;;;;;;12.07;7.10;;;21.90;99.90;;;;;;5051179;28;20062;-77
2022/06/23 06:58:10;;;;;;;8.68;7.32;;;21.90;99.90;;;;;;5051221;28;20047;-78
2022/06/23 07:00:46;;;;;;;8.10;6.55;;;22.10;99.90;;;;;;5051119;28;20048;-77
2022/06/23 07:03:15;;;;;;;7.78;6.10;;;22.20;99.90;;;;;;5031242;28;20031;-78
2022/06/23 07:05:59;;;;;;;51.30;46.50;;;22.40;99.90;;;;;;5050260;28;20491;-82
2022/06/23 07:08:39;;;;;;;60.50;54.75;;;22.60;99.90;;;;;;5016852;28;20480;-81
2022/06/23 07:11:17;;;;;;;62.10;56.47;;;22.70;99.90;;;;;;5066347;28;20101;-82
2022/06/23 07:13:49;;;;;;;74.63;54.65;;;23.00;99.90;;;;;;5015855;28;20467;-81
2022/06/23 07:16:21;;;;;;;10.95;8.15;;;23.30;99.90;;;;;;5046157;28;20415;-80
2022/06/23 07:18:55;;;;;;;10.90;9.75;;;23.50;99.90;;;;;;5065200;28;20633;-80
2022/06/23 07:21:27;;;;;;;25.75;21.40;;;23.50;99.90;;;;;;5065998;28;20039;-80
2022/06/23 07:24:15;;;;;;;43.63;17.17;;;23.70;99.90;;;;;;5050492;28;20047;-81
2022/06/23 07:26:55;;;;;;;14.85;11.88;;;23.80;99.90;;;;;;5067033;28;20044;-81
2022/06/23 07:29:38;;;;;;;11.37;9.00;;;23.90;99.90;;;;;;5052027;27;20730;-82
2022/06/23 07:32:26;;;;;;;10.23;6.97;;;24.20;99.90;;;;;;5042303;28;20333;-81
2022/06/23 07:35:08;;;;;;;9.50;5.88;;;24.40;99.90;;;;;;5028630;28;20578;-80
2022/06/23 07:37:43;;;;;;;9.02;6.93;;;24.60;99.90;;;;;;5026473;28;20559;-80
2022/06/23 07:40:11;;;;;;;8.77;6.50;;;24.80;99.90;;;;;;5079839;28;20051;-80
2022/06/23 07:42:55;;;;;;;8.93;4.88;;;25.00;99.90;;;;;;5085414;28;20112;-80
2022/06/23 07:45:31;;;;;;;6.68;4.50;;;25.00;99.90;;;;;;5070484;28;20040;-80
2022/06/23 07:47:58;;;;;;;8.93;5.88;;;25.40;99.90;;;;;;5047267;28;20052;-80
2022/06/23 07:50:25;;;;;;;6.18;5.18;;;25.60;99.90;;;;;;5064750;28;20570;-80
2022/06/23 07:52:52;;;;;;;8.07;4.45;;;25.80;99.90;;;;;;5050215;28;20044;-79
2022/06/23 07:55:26;;;;;;;5.72;4.43;;;25.80;99.90;;;;;;5052725;28;20040;-79
2022/06/23 07:57:53;;;;;;;7.70;6.80;;;25.90;99.90;;;;;;5026612;28;20043;-79
2022/06/23 08:00:19;;;;;;;20.77;18.73;;;26.30;99.90;;;;;;5063365;28;20048;-79
2022/06/23 08:03:01;;;;;;;12.73;11.23;;;26.40;99.90;;;;;;5063789;28;20051;-79
2022/06/23 08:06:02;;;;;;;19.15;17.13;;;26.50;98.30;;;;;;5044256;28;20621;-80
2022/06/23 08:08:30;;;;;;;;;;;26.80;98.40;;;;;;5039314;28;20044;-78
2022/06/23 08:13:48;;;;;;;17.70;16.02;;;26.80;97.90;;;;;;5057390;28;20044;-79
2022/06/23 08:19:10;;;;;;;13.38;11.82;;;27.20;90.00;;;;;;5060838;28;20109;-78
2022/06/23 08:21:43;;;;;;;6.00;3.00;;;27.20;91.50;;;;;;5045438;28;20110;-79
2022/06/23 08:24:18;;;;;;;6.03;3.38;;;27.30;90.90;;;;;;5057803;28;20052;-80
2022/06/23 08:26:47;;;;;;;5.45;3.67;;;27.60;73.70;;;;;;5059622;28;20043;-79
2022/06/23 08:29:16;;;;;;;11.88;10.23;;;27.50;68.60;;;;;;5053490;28;20698;-79
2022/06/23 08:31:43;;;;;;;6.38;3.45;;;27.70;80.60;;;;;;5058559;28;20063;-78
2022/06/23 08:34:10;;;;;;;6.05;4.07;;;28.20;82.20;;;;;;5027531;28;20044;-78
2022/06/23 08:36:49;;;;;;;4.93;3.08;;;28.10;65.60;;;;;;5045992;28;20039;-78
2022/06/23 08:39:20;;;;;;;7.03;4.43;;;28.10;65.80;;;;;;5057965;28;20040;-78
2022/06/23 08:41:54;;;;;;;8.05;5.72;;;28.10;69.20;;;;;;5069531;28;20088;-78
2022/06/23 08:44:38;;;;;;;7.53;3.53;;;28.30;73.30;;;;;;5058840;28;20040;-78
2022/06/23 08:47:23;;;;;;;7.65;6.85;;;28.70;71.90;;;;;;5059790;28;20071;-78
2022/06/23 08:50:00;;;;;;;5.85;3.42;;;28.70;63.70;;;;;;5035907;28;20130;-78
2022/06/23 08:52:33;;;;;;;5.70;3.80;;;28.70;63.60;;;;;;5066754;28;20051;-78
2022/06/23 08:55:31;;;;;;;5.53;4.43;;;29.00;63.70;;;;;;5027404;28;20673;-78
2022/06/23 08:58:11;;;;;;;5.80;3.35;;;28.90;57.20;;;;;;5053849;28;20379;-76
2022/06/23 09:00:52;;;;;;;4.88;3.30;;;29.00;60.30;;;;;;5074465;28;20126;-75
2022/06/23 09:03:48;;;;;;;6.85;5.07;;;29.10;59.10;;;;;;5061240;28;20454;-77
2022/06/23 09:06:39;;;;;;;11.32;9.07;;;29.00;57.30;;;;;;5037522;28;20040;-83
2022/06/23 09:09:11;;;;;;;6.78;4.78;;;29.30;58.40;;;;;;5044168;28;20472;-80
2022/06/23 09:12:19;;;;;;;9.15;5.90;;;29.20;57.90;;;;;;5055427;28;20128;-81
2022/06/23 09:15:22;;;;;;;7.00;3.13;;;29.20;55.80;;;;;;4949281;28;20635;-81
2022/06/23 09:17:48;;;;;;;9.55;7.22;;;29.00;53.90;;;;;;5055448;28;20412;-81
2022/06/23 09:20:35;;;;;;;7.10;3.53;;;29.20;55.50;;;;;;5080212;28;20060;-81
2022/06/23 09:23:26;;;;;;;6.68;3.88;;;29.60;54.90;;;;;;5071622;28;20170;-81
2022/06/23 09:26:01;;;;;;;7.00;4.85;;;29.60;55.10;;;;;;5055694;28;20039;-80
2022/06/23 09:28:37;;;;;;;5.93;3.40;;;29.90;52.70;;;;;;5007010;28;20545;-81
2022/06/23 09:31:25;;;;;;;5.03;3.53;;;29.80;51.80;;;;;;5019125;28;21127;-81
2022/06/23 09:34:13;;;;;;;4.85;2.20;;;29.70;50.90;;;;;;5029581;28;20040;-81
2022/06/23 09:37:36;;;;;;;4.90;2.50;;;30.00;53.20;;;;;;5025489;28;20338;-77
2022/06/23 09:40:21;;;;;;;8.10;5.15;;;30.20;51.60;;;;;;4977095;28;20095;-81
2022/06/23 09:43:28;;;;;;;8.95;7.15;;;30.30;51.90;;;;;;4993895;28;20405;-81
2022/06/23 09:46:09;;;;;;;5.93;2.97;;;30.40;49.20;;;;;;5067237;28;20704;-81
2022/06/23 09:48:47;;;;;;;12.45;5.38;;;30.60;49.60;;;;;;5067825;28;20202;-81
2022/06/23 09:51:32;;;;;;;9.15;6.25;;;30.50;51.40;;;;;;5074373;28;20117;-81
2022/06/23 09:54:16;;;;;;;9.00;4.53;;;30.50;49.00;;;;;;5045625;28;20131;-81
2022/06/23 09:57:05;;;;;;;6.18;4.15;;;30.70;49.70;;;;;;5047329;28;20393;-81
2022/06/23 09:59:53;;;;;;;5.72;3.78;;;31.30;52.10;;;;;;5046913;28;20137;-81
2022/06/23 10:02:46;;;;;;;7.68;3.95;;;31.30;50.10;;;;;;5042819;28;20472;-81
2022/06/23 10:05:33;;;;;;;6.85;4.25;;;31.40;48.70;;;;;;5062286;28;20501;-78
2022/06/23 10:08:39;;;;;;;7.30;3.83;;;31.20;47.70;;;;;;5035457;28;20146;-78
2022/06/23 10:11:34;;;;;;;7.45;3.85;;;31.40;47.80;;;;;;5001923;28;20064;-78
2022/06/23 10:14:26;;;;;;;7.03;3.65;;;31.60;47.60;;;;;;5024525;28;20051;-78
2022/06/23 10:17:19;;;;;;;6.00;3.03;;;31.80;49.10;;;;;;5060936;28;20043;-78
2022/06/23 10:20:23;;;;;;;4.82;2.45;;;31.70;47.10;;;;;;5056235;28;20527;-78
2022/06/23 10:23:00;;;;;;;7.10;2.97;;;31.90;45.60;;;;;;5030799;28;20155;-79
2022/06/23 10:25:32;;;;;;;4.65;2.58;;;31.80;46.00;;;;;;5067681;28;20055;-79
2022/06/23 10:28:32;;;;;;;6.03;2.90;;;31.90;47.00;;;;;;5054333;28;20047;-79
2022/06/23 10:31:15;;;;;;;4.47;2.50;;;32.30;46.40;;;;;;5074361;28;20036;-78
2022/06/23 10:34:00;;;;;;;6.97;3.03;;;32.40;45.50;;;;;;5037231;28;20072;-79
2022/06/23 10:36:39;;;;;;;7.32;4.05;;;32.50;47.40;;;;;;5012751;28;20147;-75
2022/06/23 10:39:14;;;;;;;6.93;3.88;;;32.50;44.90;;;;;;5069577;28;20055;-76
2022/06/23 10:42:06;;;;;;;6.40;4.00;;;32.60;44.50;;;;;;5048953;28;20052;-77
2022/06/23 10:45:10;;;;;;;10.05;7.20;;;32.60;44.40;;;;;;5036221;28;20127;-76
2022/06/23 10:47:48;;;;;;;14.90;13.55;;;32.80;46.00;;;;;;4996948;28;20042;-76
2022/06/23 10:50:22;;;;;;;6.47;3.80;;;32.60;44.40;;;;;;4977464;28;20046;-74
2022/06/23 10:53:07;;;;;;;5.20;3.35;;;32.80;43.50;;;;;;5036758;28;20440;-74
2022/06/23 10:56:08;;;;;;;8.57;6.00;;;33.20;43.10;;;;;;5065481;28;20264;-75
2022/06/23 10:58:43;;;;;;;7.40;2.58;;;33.00;43.50;;;;;;5067621;28;21034;-74
2022/06/23 11:01:30;;;;;;;4.30;3.03;;;33.10;45.30;;;;;;5051292;28;20056;-75
2022/06/23 11:04:17;;;;;;;40.63;37.08;;;33.10;42.70;;;;;;5026437;28;20040;-77
2022/06/23 11:06:52;;;;;;;4.05;2.00;;;33.30;41.40;;;;;;5055276;28;20083;-78
2022/06/23 11:09:40;;;;;;;6.82;3.45;;;33.60;42.40;;;;;;5068219;28;20060;-78
2022/06/23 11:12:22;;;;;;;8.00;3.58;;;33.50;42.50;;;;;;5033385;28;20040;-78
2022/06/23 11:15:00;;;;;;;5.72;4.53;;;33.70;42.00;;;;;;5050443;28;20269;-78
2022/06/23 11:17:55;;;;;;;5.47;2.85;;;33.40;40.90;;;;;;5062577;28;20475;-78
2022/06/23 11:20:21;;;;;;;5.30;2.90;;;33.70;42.90;;;;;;5069509;28;20124;-77
2022/06/23 11:23:13;;;;;;;5.40;2.60;;;33.50;42.00;;;;;;5025134;28;20175;-78
2022/06/23 11:26:07;;;;;;;7.03;4.22;;;33.60;41.00;;;;;;5078700;28;20764;-78
2022/06/23 11:28:36;;;;;;;6.60;2.35;;;33.80;41.80;;;;;;5063406;28;20787;-77
2022/06/23 11:31:20;;;;;;;4.57;2.78;;;33.90;40.80;;;;;;5046695;28;20139;-78
2022/06/23 11:33:47;;;;;;;5.13;2.67;;;33.80;40.70;;;;;;5061213;28;20585;-78
2022/06/23 11:36:55;;;;;;;3.15;2.00;;;33.90;40.80;;;;;;5047002;28;20047;-78
2022/06/23 11:39:55;;;;;;;6.45;2.90;;;34.00;40.60;;;;;;5046691;28;20043;-78
2022/06/23 11:42:52;;;;;;;4.65;2.42;;;34.10;42.80;;;;;;5073696;28;20123;-77
2022/06/23 11:45:36;;;;;;;6.30;1.95;;;34.00;40.40;;;;;;5050079;28;20048;-78
2022/06/23 11:48:40;;;;;;;4.25;1.80;;;34.10;40.90;;;;;;5070988;28;20044;-78
2022/06/23 11:51:22;;;;;;;4.03;1.88;;;34.30;40.00;;;;;;5069443;28;20039;-79
2022/06/23 11:54:15;;;;;;;7.13;2.20;;;34.30;39.60;;;;;;5067932;28;20052;-79
2022/06/23 11:57:06;;;;;;;6.07;2.00;;;34.70;41.60;;;;;;5043143;28;20635;-78
2022/06/23 12:00:08;;;;;;;3.03;1.63;;;34.40;40.80;;;;;;5053506;28;20048;-78
2022/06/23 12:02:59;;;;;;;8.55;4.43;;;35.00;41.50;;;;;;5072531;28;20040;-74
2022/06/23 12:05:37;;;;;;;4.20;2.65;;;34.90;39.20;;;;;;5056975;28;20047;-78
2022/06/23 12:08:31;;;;;;;4.10;2.00;;;34.80;38.60;;;;;;5045859;28;20385;-77
2022/06/23 12:10:57;;;;;;;4.43;1.75;;;35.00;40.60;;;;;;5047434;28;20317;-78
2022/06/23 12:13:27;;;;;;;7.78;7.03;;;35.20;41.20;;;;;;5039908;28;20820;-78
2022/06/23 12:15:55;;;;;;;5.80;3.67;;;35.20;39.90;;;;;;5071190;28;20051;-76
2022/06/23 12:18:48;;;;;;;22.75;20.63;;;35.50;39.50;;;;;;5034962;28;20385;-75
2022/06/23 12:21:32;;;;;;;8.30;5.85;;;35.40;39.20;;;;;;5064419;28;20039;-79
2022/06/23 12:24:10;;;;;;;3.50;2.13;;;35.60;39.10;;;;;;5071037;28;20127;-78
2022/06/23 12:26:45;;;;;;;11.40;10.27;;;35.60;40.50;;;;;;5069438;28;20081;-78
2022/06/23 12:29:17;;;;;;;3.25;1.73;;;35.40;37.40;;;;;;5076496;28;20051;-78
2022/06/23 12:32:08;;;;;;;4.65;3.05;;;35.20;36.60;;;;;;5060268;28;20087;-78
2022/06/23 12:34:58;;;;;;;4.30;1.83;;;35.20;36.70;;;;;;5064102;28;20499;-78
2022/06/23 12:38:11;;;;;;;11.85;8.32;;;35.30;38.20;;;;;;5061282;28;20766;-79
2022/06/23 12:40:55;;;;;;;2.88;1.70;;;35.50;38.80;;;;;;4929930;28;20679;-78
2022/06/23 12:43:52;;;;;;;5.15;2.30;;;35.40;37.40;;;;;;4957840;28;20077;-78
2022/06/23 12:46:27;;;;;;;3.80;2.05;;;35.50;38.10;;;;;;5079134;27;20056;-75
2022/06/23 12:49:10;;;;;;;8.15;7.13;;;35.10;36.90;;;;;;5050587;28;20459;-78
2022/06/23 12:51:42;;;;;;;7.05;3.75;;;35.40;38.50;;;;;;5041279;28;20476;-78
2022/06/23 12:54:18;;;;;;;5.05;2.05;;;35.20;37.50;;;;;;5062116;28;20047;-78
2022/06/23 12:57:08;;;;;;;13.13;10.35;;;35.20;37.90;;;;;;5054813;28;20044;-78
2022/06/23 13:00:05;;;;;;;3.78;2.13;;;35.50;38.80;;;;;;5071721;28;20048;-77
2022/06/23 13:02:39;;;;;;;5.70;2.63;;;35.60;37.50;;;;;;5037329;28;20044;-78
2022/06/23 13:05:24;;;;;;;6.40;2.08;;;35.80;37.50;;;;;;5060261;28;20044;-77
2022/06/23 13:08:08;;;;;;;7.95;4.45;;;35.90;38.00;;;;;;5050389;28;20491;-78
2022/06/23 13:11:12;;;;;;;4.85;2.15;;;35.80;36.90;;;;;;5070897;28;20067;-79
2022/06/23 13:13:49;;;;;;;7.88;5.72;;;35.70;36.50;;;;;;5020732;28;20040;-78
2022/06/23 13:16:22;;;;;;;2.70;1.98;;;35.80;36.60;;;;;;5042854;28;20762;-77
2022/06/23 13:18:58;;;;;;;4.93;2.63;;;36.00;37.50;;;;;;5087690;27;20439;-79
2022/06/23 13:21:33;;;;;;;4.57;2.40;;;35.90;37.00;;;;;;5059735;28;20577;-77
2022/06/23 13:24:16;;;;;;;5.57;2.92;;;35.70;35.40;;;;;;5080965;28;20567;-80
2022/06/23 13:26:57;;;;;;;6.80;3.78;;;36.00;37.60;;;;;;5073681;28;20056;-79
2022/06/23 13:29:36;;;;;;;6.10;2.75;;;36.10;36.90;;;;;;5057925;28;20576;-80
2022/06/23 13:32:30;;;;;;;4.20;2.85;;;36.30;35.70;;;;;;5074203;28;20061;-79
2022/06/23 13:35:16;;;;;;;3.08;1.65;;;36.10;35.20;;;;;;5077350;28;20035;-79
2022/06/23 13:37:46;;;;;;;5.57;1.90;;;36.30;35.40;;;;;;5074448;28;20069;-80
2022/06/23 13:40:25;;;;;;;8.65;7.50;;;36.40;36.50;;;;;;5042836;28;20044;-80
2022/06/23 13:43:29;;;;;;;4.95;3.58;;;36.50;34.80;;;;;;5055318;28;20190;-79
2022/06/23 13:46:11;;;;;;;4.25;3.00;;;36.50;34.50;;;;;;5047826;28;20511;-79
2022/06/23 13:48:58;;;;;;;4.00;2.53;;;36.50;35.40;;;;;;5078940;28;20044;-78
2022/06/23 13:51:44;;;;;;;4.10;1.80;;;36.30;34.00;;;;;;5046143;28;20040;-78
2022/06/23 13:54:26;;;;;;;4.80;1.80;;;36.30;36.60;;;;;;5058990;28;20039;-78
2022/06/23 13:57:10;;;;;;;2.85;1.77;;;36.60;35.10;;;;;;5059141;28;20125;-78
2022/06/23 13:59:39;;;;;;;18.02;16.42;;;36.80;34.70;;;;;;5037078;28;20076;-78